createdAt,value
2023-03-01T00:01:27.322Z,8.68
2023-03-01T00:03:56.198Z,8.77
2023-03-01T00:06:24.971Z,7.53
2023-03-01T00:08:53.327Z,9.13
2023-03-01T00:11:23.324Z,8.32
2023-03-01T00:13:56.303Z,8.35
2023-03-01T00:16:26.261Z,8.07
2023-03-01T00:18:54.289Z,8.15
2023-03-01T00:21:22.448Z,7.50
2023-03-01T00:23:51.311Z,7.68
2023-03-01T00:26:20.256Z,8.25
2023-03-01T00:29:00.197Z,8.52
2023-03-01T00:31:31.959Z,8.65
2023-03-01T00:34:02.468Z,5.97
2023-03-01T00:36:32.782Z,7.80
2023-03-01T00:39:01.608Z,8.40
2023-03-01T00:41:29.562Z,8.82
2023-03-01T00:43:57.522Z,6.22
2023-03-01T00:46:27.109Z,8.02
2023-03-01T00:48:56.390Z,7.38
2023-03-01T00:51:27.197Z,8.63
2023-03-01T00:53:55.933Z,8.57
2023-03-01T00:56:23.807Z,8.55
2023-03-01T00:58:51.781Z,8.52
2023-03-01T01:01:22.121Z,7.43
2023-03-01T01:03:52.524Z,7.78
2023-03-01T01:06:23.752Z,8.45
2023-03-01T01:08:52.525Z,7.63
2023-03-01T01:11:21.585Z,7.10
2023-03-01T01:13:50.477Z,8.07
2023-03-01T01:16:20.629Z,6.95
2023-03-01T01:18:48.504Z,7.05
2023-03-01T01:21:23.771Z,8.40
2023-03-01T01:23:54.565Z,7.70
2023-03-01T01:26:25.670Z,7.88
2023-03-01T01:28:54.568Z,8.43
2023-03-01T01:31:24.615Z,6.80
2023-03-01T01:33:52.606Z,8.05
2023-03-01T01:36:20.724Z,9.63
2023-03-01T01:38:48.925Z,8.90
2023-03-01T01:41:19.704Z,7.03
2023-03-01T01:43:49.395Z,8.52
2023-03-01T01:46:30.697Z,7.30
2023-03-01T01:49:02.165Z,8.68
2023-03-01T01:51:39.536Z,8.50
2023-03-01T01:54:12.351Z,7.97
2023-03-01T01:56:45.605Z,7.85
2023-03-01T01:59:14.224Z,6.65
2023-03-01T02:01:42.163Z,8.82
2023-03-01T02:04:10.086Z,8.65
2023-03-01T02:06:41.911Z,8.18
2023-03-01T02:09:15.587Z,9.30
2023-03-01T02:11:46.273Z,8.52
2023-03-01T02:14:16.739Z,7.93
2023-03-01T02:16:44.992Z,9.30
2023-03-01T02:19:21.939Z,9.65
2023-03-01T02:22:00.985Z,6.60
2023-03-01T02:24:38.076Z,8.93
2023-03-01T02:27:07.570Z,7.63
2023-03-01T02:29:37.346Z,8.30
2023-03-01T02:32:06.080Z,7.40
2023-03-01T02:34:34.806Z,8.27
2023-03-01T02:37:05.516Z,7.80
2023-03-01T02:39:42.813Z,8.02
2023-03-01T02:42:14.896Z,9.15
2023-03-01T02:44:44.219Z,8.82
2023-03-01T02:47:11.999Z,7.50
2023-03-01T02:49:39.814Z,8.05
2023-03-01T02:52:25.562Z,8.07
2023-03-01T02:55:00.481Z,7.68
2023-03-01T02:57:30.985Z,7.65
2023-03-01T03:00:07.859Z,7.75
2023-03-01T03:02:39.924Z,7.53
2023-03-01T03:05:23.241Z,7.55
2023-03-01T03:07:56.687Z,7.78
2023-03-01T03:10:26.904Z,9.05
2023-03-01T03:12:57.972Z,7.82
2023-03-01T03:15:30.142Z,8.00
2023-03-01T03:18:00.093Z,7.80
2023-03-01T03:20:30.173Z,10.38
2023-03-01T03:23:00.098Z,8.02
2023-03-01T03:25:29.339Z,9.30
2023-03-01T03:27:58.977Z,7.68
2023-03-01T03:30:31.866Z,8.02
2023-03-01T03:33:01.106Z,7.65
2023-03-01T03:35:32.030Z,7.35
2023-03-01T03:38:04.148Z,7.28
2023-03-01T03:40:33.730Z,7.32
2023-03-01T03:43:01.522Z,8.65
2023-03-01T03:45:30.811Z,7.53
2023-03-01T03:47:58.601Z,8.63
2023-03-01T03:50:26.408Z,8.27
2023-03-01T03:52:54.197Z,7.38
2023-03-01T03:55:22.180Z,9.13
2023-03-01T03:57:52.411Z,7.97
2023-03-01T04:00:22.500Z,8.80
2023-03-01T04:02:57.448Z,8.23
2023-03-01T04:05:25.988Z,8.48
2023-03-01T04:08:01.968Z,8.70
2023-03-01T04:10:31.827Z,8.50
2023-03-01T04:12:59.813Z,8.00
2023-03-01T04:15:29.066Z,9.63
2023-03-01T04:17:59.960Z,11.52
2023-03-01T04:20:30.790Z,9.70
2023-03-01T04:23:11.372Z,8.85
2023-03-01T04:25:40.161Z,9.10
2023-03-01T04:28:08.518Z,8.85
2023-03-01T04:30:37.221Z,8.20
2023-03-01T04:33:08.776Z,9.30
2023-03-01T04:35:37.926Z,8.68
2023-03-01T04:38:06.208Z,10.95
2023-03-01T04:40:34.895Z,8.13
2023-03-01T04:43:03.217Z,9.15
2023-03-01T04:45:31.367Z,9.20
2023-03-01T04:47:59.524Z,11.02
2023-03-01T04:50:28.751Z,10.10
2023-03-01T04:52:59.352Z,8.75
2023-03-01T04:55:28.153Z,8.15
2023-03-01T04:57:56.588Z,9.20
2023-03-01T05:00:26.722Z,9.50
2023-03-01T05:02:56.988Z,10.63
2023-03-01T05:05:27.754Z,8.95
2023-03-01T05:07:59.467Z,11.05
2023-03-01T05:10:29.902Z,12.15
2023-03-01T05:12:58.292Z,13.82
2023-03-01T05:15:26.859Z,9.48
2023-03-01T05:17:56.092Z,10.68
2023-03-01T05:20:24.888Z,8.98
2023-03-01T05:22:54.214Z,11.15
2023-03-01T05:25:23.701Z,12.82
2023-03-01T05:27:51.442Z,11.57
2023-03-01T05:30:20.330Z,13.50
2023-03-01T05:32:56.618Z,12.73
2023-03-01T05:35:24.969Z,10.80
2023-03-01T05:37:53.611Z,11.85
2023-03-01T05:40:25.281Z,11.75
2023-03-01T05:42:55.488Z,11.60
2023-03-01T05:45:24.839Z,11.48
2023-03-01T05:47:53.216Z,12.35
2023-03-01T05:50:23.004Z,13.43
2023-03-01T05:52:53.186Z,12.02
2023-03-01T05:55:23.668Z,11.10
2023-03-01T05:57:52.102Z,11.82
2023-03-01T06:00:23.098Z,10.15
2023-03-01T06:02:52.701Z,13.63
2023-03-01T06:05:20.685Z,10.57
2023-03-01T06:07:48.719Z,12.40
2023-03-01T06:10:16.803Z,12.30
2023-03-01T06:12:46.392Z,15.18
2023-03-01T06:15:16.854Z,14.20
2023-03-01T06:17:46.879Z,12.82
2023-03-01T06:20:17.142Z,12.27
2023-03-01T06:22:45.794Z,11.93
2023-03-01T06:25:15.441Z,11.32
2023-03-01T06:27:44.012Z,12.75
2023-03-01T06:30:15.914Z,10.85
2023-03-01T06:32:43.860Z,11.48
2023-03-01T06:35:12.752Z,11.30
2023-03-01T06:37:41.965Z,10.75
2023-03-01T06:40:12.709Z,11.30
2023-03-01T06:42:41.959Z,10.95
2023-03-01T06:45:11.657Z,12.55
2023-03-01T06:47:40.850Z,11.57
2023-03-01T06:50:09.772Z,10.95
2023-03-01T06:52:38.103Z,11.65
2023-03-01T06:55:06.740Z,11.50
2023-03-01T06:57:34.768Z,12.52
2023-03-01T07:00:02.516Z,12.98
2023-03-01T07:02:30.381Z,13.70
2023-03-01T07:04:59.559Z,12.15
2023-03-01T07:07:27.378Z,11.82
2023-03-01T07:09:55.341Z,13.82
2023-03-01T07:12:23.186Z,13.27
2023-03-01T07:14:50.958Z,12.98
2023-03-01T07:17:19.793Z,15.50
2023-03-01T07:19:47.527Z,14.00
2023-03-01T07:22:16.722Z,15.13
2023-03-01T07:24:45.017Z,13.63
2023-03-01T07:27:14.190Z,11.93
2023-03-01T07:29:41.958Z,12.43
2023-03-01T07:32:13.644Z,11.88
2023-03-01T07:34:41.508Z,13.43
2023-03-01T07:37:09.215Z,12.57
2023-03-01T07:39:38.460Z,11.50
2023-03-01T07:42:06.180Z,12.63
2023-03-01T07:44:35.381Z,13.45
2023-03-01T07:47:03.172Z,13.85
2023-03-01T07:49:30.967Z,13.45
2023-03-01T07:51:58.662Z,12.73
2023-03-01T07:54:27.238Z,13.02
2023-03-01T07:56:56.449Z,12.82
2023-03-01T07:59:24.848Z,10.95
2023-03-01T08:01:52.618Z,12.23
2023-03-01T08:04:20.521Z,13.48
2023-03-01T08:06:48.214Z,11.15
2023-03-01T08:09:16.075Z,10.30
2023-03-01T08:11:43.829Z,10.80
2023-03-01T08:14:13.044Z,14.57
2023-03-01T08:16:41.128Z,11.77
2023-03-01T08:19:10.086Z,11.68
2023-03-01T08:21:38.677Z,12.90
2023-03-01T08:24:08.040Z,12.70
2023-03-01T08:26:36.121Z,14.07
2023-03-01T08:29:05.241Z,14.07
2023-03-01T08:31:36.563Z,12.77
2023-03-01T08:34:07.334Z,12.38
2023-03-01T08:36:38.711Z,16.13
2023-03-01T08:39:07.708Z,15.90
2023-03-01T08:41:35.716Z,14.70
2023-03-01T08:44:03.750Z,12.80
2023-03-01T08:46:34.767Z,13.75
2023-03-01T08:49:05.305Z,13.32
2023-03-01T08:51:37.437Z,14.77
2023-03-01T08:54:05.526Z,13.23
2023-03-01T08:56:33.875Z,13.95
2023-03-01T08:59:02.109Z,14.40
2023-03-01T09:01:29.914Z,13.65
2023-03-01T09:03:59.212Z,14.02
2023-03-01T09:06:26.985Z,13.43
2023-03-01T09:08:55.830Z,12.27
2023-03-01T09:11:24.353Z,12.70
2023-03-01T09:13:52.682Z,12.20
2023-03-01T09:16:23.055Z,10.48
2023-03-01T09:18:52.792Z,10.77
2023-03-01T09:21:37.585Z,11.75
2023-03-01T09:24:07.884Z,13.60
2023-03-01T09:26:35.659Z,10.45
2023-03-01T09:29:03.453Z,11.15
2023-03-01T09:31:31.156Z,10.25
2023-03-01T09:33:58.930Z,10.77
2023-03-01T09:36:28.244Z,10.10
2023-03-01T09:38:56.087Z,12.63
2023-03-01T09:41:39.173Z,11.27
2023-03-01T09:44:15.491Z,11.40
2023-03-01T09:46:47.134Z,11.27
2023-03-01T09:49:20.614Z,12.43
2023-03-01T09:52:02.861Z,13.25
2023-03-01T09:54:30.806Z,12.95
2023-03-01T09:57:15.212Z,12.77
2023-03-01T09:59:58.093Z,11.27
2023-03-01T10:02:32.806Z,9.93
2023-03-01T10:05:15.271Z,10.35
2023-03-01T10:07:52.870Z,11.70
2023-03-01T10:10:29.854Z,10.55
2023-03-01T10:12:58.895Z,10.52
2023-03-01T10:15:37.179Z,9.73
2023-03-01T10:18:11.984Z,10.68
2023-03-01T10:20:47.964Z,11.00
2023-03-01T10:23:17.092Z,11.15
2023-03-01T10:25:58.222Z,11.32
2023-03-01T10:28:30.916Z,11.65
2023-03-01T10:31:01.112Z,11.43
2023-03-01T10:33:33.542Z,9.55
2023-03-01T10:36:01.406Z,13.88
2023-03-01T10:38:33.270Z,12.18
2023-03-01T10:41:06.381Z,11.25
2023-03-01T10:43:46.440Z,10.65
2023-03-01T10:46:28.784Z,11.32
2023-03-01T10:49:15.739Z,10.63
2023-03-01T10:51:45.819Z,11.70
2023-03-01T10:54:21.443Z,10.88
2023-03-01T10:56:51.692Z,11.50
2023-03-01T10:59:28.508Z,11.00
2023-03-01T11:02:26.188Z,10.57
2023-03-01T11:05:00.290Z,10.55
2023-03-01T11:07:28.648Z,11.43
2023-03-01T11:09:57.900Z,10.73
2023-03-01T11:12:26.460Z,9.57
2023-03-01T11:14:57.108Z,11.25
2023-03-01T11:17:29.984Z,11.50
2023-03-01T11:20:18.052Z,13.38
2023-03-01T11:22:50.011Z,11.65
2023-03-01T11:25:21.462Z,10.88
2023-03-01T11:27:49.430Z,10.25
2023-03-01T11:30:22.197Z,13.57
2023-03-01T11:32:57.281Z,11.75
2023-03-01T11:35:28.642Z,11.68
2023-03-01T11:38:18.737Z,11.05
2023-03-01T11:40:54.315Z,10.93
2023-03-01T11:43:29.443Z,12.43
2023-03-01T11:46:23.748Z,9.68
2023-03-01T11:48:59.881Z,9.68
2023-03-01T11:51:46.648Z,10.45
2023-03-01T11:54:30.180Z,11.75
2023-03-01T11:57:03.287Z,10.25
2023-03-01T11:59:50.114Z,10.07
2023-03-01T12:02:37.775Z,9.82
2023-03-01T12:05:26.618Z,10.77
2023-03-01T12:08:01.300Z,10.70
2023-03-01T12:10:30.641Z,11.43
2023-03-01T12:13:20.059Z,11.52
2023-03-01T12:16:11.960Z,10.50
2023-03-01T12:18:54.933Z,9.93
2023-03-01T12:21:33.097Z,11.05
2023-03-01T12:24:26.526Z,11.10
2023-03-01T12:27:05.862Z,12.85
2023-03-01T12:29:40.706Z,11.90
2023-03-01T12:32:23.972Z,11.73
2023-03-01T12:35:24.213Z,10.55
2023-03-01T12:37:58.677Z,11.65
2023-03-01T12:40:48.854Z,11.55
2023-03-01T12:43:30.352Z,10.77
2023-03-01T12:46:16.867Z,10.50
2023-03-01T12:48:52.898Z,13.13
2023-03-01T12:51:25.630Z,9.88
2023-03-01T12:53:57.075Z,8.30
2023-03-01T12:56:27.488Z,9.02
2023-03-01T12:59:04.608Z,8.15
2023-03-01T13:01:44.838Z,8.57
2023-03-01T13:04:39.419Z,9.38
2023-03-01T13:07:18.730Z,8.10
2023-03-01T13:09:56.396Z,8.88
2023-03-01T13:13:04.069Z,11.02
2023-03-01T13:15:36.594Z,9.77
2023-03-01T13:18:27.383Z,9.10
2023-03-01T13:20:58.351Z,9.05
2023-03-01T13:23:28.786Z,10.32
2023-03-01T13:26:15.087Z,8.43
2023-03-01T13:29:01.847Z,10.07
2023-03-01T13:32:04.965Z,9.43
2023-03-01T13:34:45.801Z,8.73
2023-03-01T13:37:22.972Z,9.73
2023-03-01T13:39:51.135Z,9.50
2023-03-01T13:43:04.195Z,9.90
2023-03-01T13:45:41.232Z,8.77
2023-03-01T13:48:17.220Z,9.68
2023-03-01T13:50:51.239Z,8.85
2023-03-01T13:53:21.821Z,9.50
2023-03-01T13:55:52.862Z,8.88
2023-03-01T13:58:26.325Z,7.97
2023-03-01T14:00:59.508Z,10.60
2023-03-01T14:03:28.076Z,9.07
2023-03-01T14:06:14.867Z,10.20
2023-03-01T14:08:45.083Z,9.45
2023-03-01T14:11:43.856Z,8.93
2023-03-01T14:14:42.433Z,11.38
2023-03-01T14:17:28.338Z,11.15
2023-03-01T14:19:58.258Z,10.68
2023-03-01T14:22:29.413Z,9.70
2023-03-01T14:25:00.273Z,10.88
2023-03-01T14:27:30.006Z,10.75
2023-03-01T14:30:03.459Z,9.98
2023-03-01T14:32:33.501Z,9.60
2023-03-01T14:35:02.634Z,10.02
2023-03-01T14:37:33.840Z,10.90
2023-03-01T14:40:03.561Z,10.60
2023-03-01T14:42:35.945Z,10.93
2023-03-01T14:45:05.820Z,9.65
2023-03-01T14:47:35.665Z,10.25
2023-03-01T14:50:06.826Z,10.43
2023-03-01T14:52:39.573Z,10.40
2023-03-01T14:55:17.260Z,9.82
2023-03-01T14:57:46.103Z,10.32
2023-03-01T15:00:20.812Z,9.07
2023-03-01T15:02:50.779Z,9.63
2023-03-01T15:05:29.888Z,9.95
2023-03-01T15:08:01.272Z,10.05
2023-03-01T15:10:31.046Z,9.27
2023-03-01T15:13:11.821Z,9.15
2023-03-01T15:15:42.713Z,10.68
2023-03-01T15:18:18.799Z,10.10
2023-03-01T15:20:47.220Z,9.18
2023-03-01T15:23:25.499Z,9.40
2023-03-01T15:25:58.214Z,8.90
2023-03-01T15:28:28.572Z,9.18
2023-03-01T15:31:03.000Z,8.73
2023-03-01T15:33:34.102Z,9.75
2023-03-01T15:36:03.717Z,9.73
2023-03-01T15:38:39.203Z,8.07
2023-03-01T15:41:23.794Z,10.90
2023-03-01T15:43:51.727Z,8.43
2023-03-01T15:46:24.553Z,10.70
2023-03-01T15:48:55.490Z,10.98
2023-03-01T15:51:31.110Z,9.30
2023-03-01T15:54:02.686Z,8.85
2023-03-01T15:56:30.875Z,9.07
2023-03-01T15:59:03.853Z,7.65
2023-03-01T16:01:35.111Z,9.10
2023-03-01T16:04:03.036Z,8.98
2023-03-01T16:06:31.277Z,8.25
2023-03-01T16:09:00.860Z,8.73
2023-03-01T16:11:29.009Z,9.60
2023-03-01T16:13:56.932Z,7.43
2023-03-01T16:16:25.406Z,7.28
2023-03-01T16:18:55.511Z,8.00
2023-03-01T16:21:25.816Z,10.15
2023-03-01T16:23:54.172Z,9.98
2023-03-01T16:26:23.379Z,8.00
2023-03-01T16:28:51.191Z,8.90
2023-03-01T16:31:21.320Z,8.93
2023-03-01T16:33:50.908Z,8.35
2023-03-01T16:36:20.664Z,8.02
2023-03-01T16:38:49.425Z,7.43
2023-03-01T16:41:20.868Z,9.77
2023-03-01T16:43:50.295Z,7.00
2023-03-01T16:46:19.904Z,8.10
2023-03-01T16:48:49.009Z,7.63
2023-03-01T16:51:17.218Z,8.15
2023-03-01T16:53:47.393Z,7.68
2023-03-01T16:56:16.438Z,8.20
2023-03-01T16:58:44.881Z,9.50
2023-03-01T17:01:18.259Z,8.02
2023-03-01T17:03:48.246Z,8.07
2023-03-01T17:06:19.447Z,7.43
2023-03-01T17:08:47.269Z,8.57
2023-03-01T17:11:17.041Z,9.35
2023-03-01T17:13:45.388Z,8.20
2023-03-01T17:16:18.011Z,7.97
2023-03-01T17:18:45.886Z,7.93
2023-03-01T17:21:14.444Z,7.97
2023-03-01T17:23:45.550Z,8.80
2023-03-01T17:26:14.171Z,8.75
2023-03-01T17:28:43.799Z,8.88
2023-03-01T17:31:12.000Z,7.63
2023-03-01T17:33:41.113Z,9.05
2023-03-01T17:36:09.101Z,6.95
2023-03-01T17:38:37.428Z,11.65
2023-03-01T17:41:06.194Z,7.65
2023-03-01T17:43:35.122Z,8.95
2023-03-01T17:46:03.369Z,8.57
2023-03-01T17:48:31.617Z,10.48
2023-03-01T17:51:00.990Z,8.63
2023-03-01T17:53:28.751Z,8.43
2023-03-01T17:56:01.742Z,8.43
2023-03-01T18:00:57.305Z,8.32
2023-03-01T18:03:25.196Z,8.90
2023-03-01T18:05:53.037Z,7.93
2023-03-01T18:08:22.200Z,10.93
2023-03-01T18:10:50.225Z,10.15
2023-03-01T18:13:18.031Z,9.75
2023-03-01T18:15:45.761Z,8.25
2023-03-01T18:18:13.537Z,8.30
2023-03-01T18:20:41.317Z,8.15
2023-03-01T18:23:09.221Z,7.63
2023-03-01T18:25:41.508Z,7.97
2023-03-01T18:28:09.367Z,9.25
2023-03-01T18:30:37.306Z,7.22
2023-03-01T18:33:05.366Z,10.25
2023-03-01T18:35:37.014Z,9.07
2023-03-01T18:38:05.863Z,10.35
2023-03-01T18:40:33.703Z,8.65
2023-03-01T18:43:03.056Z,8.18
2023-03-01T18:45:32.558Z,9.93
2023-03-01T18:48:00.410Z,9.13
2023-03-01T18:50:28.246Z,8.15
2023-03-01T18:52:56.298Z,7.65
2023-03-01T18:55:24.082Z,8.43
2023-03-01T18:57:51.941Z,7.40
2023-03-01T19:00:22.875Z,7.88
2023-03-01T19:02:50.681Z,7.47
2023-03-01T19:05:18.793Z,8.15
2023-03-01T19:07:46.604Z,7.22
2023-03-01T19:10:14.346Z,6.95
2023-03-01T19:12:42.140Z,8.05
2023-03-01T19:15:10.471Z,8.57
2023-03-01T19:17:39.609Z,7.85
2023-03-01T19:20:09.017Z,7.95
2023-03-01T19:22:36.838Z,7.20
2023-03-01T19:25:04.984Z,7.25
2023-03-01T19:27:32.815Z,8.73
2023-03-01T19:30:00.572Z,8.35
2023-03-01T19:32:28.525Z,7.18
2023-03-01T19:34:57.745Z,8.35
2023-03-01T19:37:25.590Z,7.03
2023-03-01T19:39:53.391Z,7.28
2023-03-01T19:42:24.816Z,7.07
2023-03-01T19:44:52.590Z,7.18
2023-03-01T19:47:20.389Z,7.50
2023-03-01T19:49:48.250Z,8.88
2023-03-01T19:52:17.507Z,7.15
2023-03-01T19:54:46.463Z,7.80
2023-03-01T19:57:14.300Z,7.35
2023-03-01T19:59:42.248Z,8.13
2023-03-01T20:02:12.160Z,7.80
2023-03-01T20:04:39.984Z,9.02
2023-03-01T20:07:07.846Z,9.00
2023-03-01T20:09:37.223Z,10.13
2023-03-01T20:12:05.231Z,9.32
2023-03-01T20:14:33.110Z,8.13
2023-03-01T20:17:00.921Z,9.52
2023-03-01T20:19:29.655Z,8.73
2023-03-01T20:21:57.527Z,9.20
2023-03-01T20:24:25.381Z,7.75
2023-03-01T20:26:54.508Z,8.07
2023-03-01T20:29:22.541Z,9.38
2023-03-01T20:31:50.545Z,8.20
2023-03-01T20:34:18.564Z,9.05
2023-03-01T20:36:46.356Z,8.55
2023-03-01T20:39:14.227Z,6.78
2023-03-01T20:41:42.158Z,7.18
2023-03-01T20:44:11.602Z,8.85
2023-03-01T20:46:39.863Z,8.07
2023-03-01T20:49:08.208Z,8.55
2023-03-01T20:51:36.027Z,8.85
2023-03-01T20:54:04.173Z,7.32
2023-03-01T20:56:32.475Z,7.63
2023-03-01T20:59:04.515Z,9.52
2023-03-01T21:01:33.765Z,8.90
2023-03-01T21:04:01.627Z,7.93
2023-03-01T21:06:29.628Z,10.70
2023-03-01T21:09:10.876Z,9.60
2023-03-01T21:11:39.254Z,8.30
2023-03-01T21:14:07.039Z,9.82
2023-03-01T21:16:36.640Z,10.45
2023-03-01T21:19:05.459Z,9.00
2023-03-01T21:21:33.276Z,10.00
2023-03-01T21:24:01.055Z,10.10
2023-03-01T21:26:28.865Z,7.93
2023-03-01T21:28:58.509Z,9.77
2023-03-01T21:31:28.451Z,9.52
2023-03-01T21:33:59.926Z,8.48
2023-03-01T21:36:30.401Z,8.30
2023-03-01T21:39:01.232Z,8.70
2023-03-01T21:41:31.399Z,9.45
2023-03-01T21:44:01.130Z,8.85
2023-03-01T21:46:31.870Z,9.10
2023-03-01T21:49:02.499Z,10.13
2023-03-01T21:51:30.547Z,9.90
2023-03-01T21:54:00.983Z,10.18
2023-03-01T21:56:31.755Z,8.98
2023-03-01T21:58:59.946Z,8.52
2023-03-01T22:01:29.461Z,9.13
2023-03-01T22:03:58.538Z,9.05
2023-03-01T22:06:30.891Z,8.85
2023-03-01T22:09:01.033Z,10.65
2023-03-01T22:11:29.088Z,8.77
2023-03-01T22:13:57.397Z,9.70
2023-03-01T22:16:27.231Z,9.57
2023-03-01T22:18:55.286Z,10.98
2023-03-01T22:21:24.666Z,10.27
2023-03-01T22:23:54.480Z,10.30
2023-03-01T22:26:25.422Z,9.88
2023-03-01T22:28:53.912Z,8.88
2023-03-01T22:31:22.187Z,11.00
2023-03-01T22:33:50.061Z,9.52
2023-03-01T22:36:18.058Z,9.40
2023-03-01T22:38:46.274Z,8.68
2023-03-01T22:41:17.197Z,9.00
2023-03-01T22:43:44.958Z,9.43
2023-03-01T22:46:14.177Z,9.88
2023-03-01T22:48:42.205Z,9.18
2023-03-01T22:51:15.032Z,9.73
2023-03-01T22:53:42.864Z,9.05
2023-03-01T22:56:18.049Z,8.98
2023-03-01T22:58:46.361Z,10.35
2023-03-01T23:01:16.208Z,8.57
2023-03-01T23:03:45.365Z,8.68
2023-03-01T23:06:14.161Z,9.30
2023-03-01T23:08:42.182Z,9.55
2023-03-01T23:11:16.975Z,9.88
2023-03-01T23:13:45.052Z,9.95
2023-03-01T23:16:13.591Z,8.23
2023-03-01T23:18:41.870Z,9.30
2023-03-01T23:21:11.011Z,10.05
2023-03-01T23:23:39.122Z,9.55
2023-03-01T23:26:07.889Z,9.98
2023-03-01T23:28:40.682Z,9.63
2023-03-01T23:33:38.760Z,9.10
2023-03-01T23:36:07.907Z,10.20
2023-03-01T23:38:35.696Z,10.18
2023-03-01T23:41:03.476Z,10.60
2023-03-01T23:43:33.061Z,9.77
2023-03-01T23:46:02.297Z,9.48
2023-03-01T23:48:30.072Z,12.40
2023-03-01T23:50:57.916Z,9.88
2023-03-01T23:53:25.955Z,11.35
2023-03-01T23:55:55.106Z,11.07
2023-03-01T23:58:28.269Z,10.40
